createdAt,value
2023-05-15T00:02:21.278Z,10.71
2023-05-15T00:04:48.157Z,10.83
2023-05-15T00:07:14.935Z,10.71
2023-05-15T00:09:41.608Z,10.80
2023-05-15T00:12:08.585Z,10.75
2023-05-15T00:14:35.308Z,10.77
2023-05-15T00:17:02.133Z,10.59
2023-05-15T00:19:28.825Z,10.58
2023-05-15T00:21:55.577Z,10.79
2023-05-15T00:24:22.239Z,10.87
2023-05-15T00:26:49.094Z,10.68
2023-05-15T00:29:15.794Z,10.69
2023-05-15T00:31:42.470Z,10.71
2023-05-15T00:34:09.261Z,10.73
2023-05-15T00:36:36.198Z,10.74
2023-05-15T00:39:03.022Z,10.81
2023-05-15T00:41:32.653Z,10.80
2023-05-15T00:44:00.849Z,10.82
2023-05-15T00:46:28.802Z,10.81
2023-05-15T00:48:59.332Z,10.75
2023-05-15T00:51:27.146Z,10.80
2023-05-15T00:53:56.989Z,10.88
2023-05-15T00:56:25.518Z,10.75
2023-05-15T00:58:54.381Z,10.57
2023-05-15T01:01:21.930Z,10.63
2023-05-15T01:03:48.830Z,10.53
2023-05-15T01:06:15.558Z,10.44
2023-05-15T01:08:50.343Z,10.26
2023-05-15T01:11:18.370Z,10.22
2023-05-15T01:13:45.238Z,9.97
2023-05-15T01:16:11.949Z,9.98
2023-05-15T01:18:38.834Z,10.10
2023-05-15T01:21:35.563Z,9.83
2023-05-15T01:24:24.096Z,10.01
2023-05-15T01:27:05.918Z,9.96
2023-05-15T01:29:47.513Z,9.91
2023-05-15T01:32:24.352Z,9.84
2023-05-15T01:35:07.938Z,9.88
2023-05-15T01:37:41.436Z,9.77
2023-05-15T01:40:10.300Z,9.83
2023-05-15T01:42:42.149Z,9.92
2023-05-15T01:45:11.941Z,9.92
2023-05-15T01:47:47.414Z,9.90
2023-05-15T01:50:17.095Z,9.81
2023-05-15T01:52:49.370Z,9.75
2023-05-15T01:55:17.189Z,9.73
2023-05-15T01:57:46.853Z,9.64
2023-05-15T02:00:14.949Z,9.69
2023-05-15T02:02:44.336Z,9.62
2023-05-15T02:05:12.290Z,9.67
2023-05-15T02:07:39.529Z,9.81
2023-05-15T02:10:07.171Z,9.54
2023-05-15T02:12:35.374Z,9.54
2023-05-15T02:15:04.512Z,9.50
2023-05-15T02:17:31.498Z,9.68
2023-05-15T02:20:00.576Z,9.73
2023-05-15T02:22:27.353Z,9.79
2023-05-15T02:24:54.132Z,9.79
2023-05-15T02:27:46.930Z,9.60
2023-05-15T02:30:22.002Z,9.53
2023-05-15T02:33:00.524Z,9.60
2023-05-15T02:35:39.659Z,9.48
2023-05-15T02:38:15.773Z,9.53
2023-05-15T02:40:45.512Z,9.36
2023-05-15T02:43:14.237Z,9.25
2023-05-15T02:45:41.939Z,9.35
2023-05-15T02:48:09.520Z,9.19
2023-05-15T02:50:36.356Z,9.29
2023-05-15T02:53:07.749Z,9.21
2023-05-15T02:55:35.061Z,9.09
2023-05-15T02:58:03.647Z,9.02
2023-05-15T03:00:30.486Z,8.88
2023-05-15T03:02:57.233Z,8.91
2023-05-15T03:05:24.100Z,8.98
2023-05-15T03:07:50.960Z,8.76
2023-05-15T03:10:17.673Z,8.80
2023-05-15T03:12:44.296Z,8.80
2023-05-15T03:15:11.202Z,8.49
2023-05-15T03:17:37.932Z,8.61
2023-05-15T03:20:05.132Z,8.74
2023-05-15T03:22:31.846Z,8.62
2023-05-15T03:24:58.630Z,8.62
2023-05-15T03:27:25.877Z,8.66
2023-05-15T03:29:52.533Z,8.61
2023-05-15T03:32:19.362Z,8.59
2023-05-15T03:34:46.176Z,8.52
2023-05-15T03:37:12.793Z,8.67
2023-05-15T03:39:39.466Z,8.68
2023-05-15T03:42:06.530Z,8.74
2023-05-15T03:44:33.381Z,8.72
2023-05-15T03:47:00.233Z,8.39
2023-05-15T03:49:26.900Z,8.49
2023-05-15T03:51:54.072Z,8.68
2023-05-15T03:54:20.892Z,8.74
2023-05-15T03:56:47.591Z,8.45
2023-05-15T03:59:14.527Z,8.41
2023-05-15T04:01:55.353Z,8.39
2023-05-15T04:04:28.018Z,8.48
2023-05-15T04:06:56.848Z,8.43
2023-05-15T04:09:23.590Z,8.49
2023-05-15T04:11:50.583Z,8.43
2023-05-15T04:14:17.258Z,8.33
2023-05-15T04:16:44.014Z,8.44
2023-05-15T04:19:11.068Z,8.50
2023-05-15T04:21:37.804Z,8.47
2023-05-15T04:24:04.688Z,8.27
2023-05-15T04:26:31.709Z,8.36
2023-05-15T04:29:04.108Z,8.57
2023-05-15T04:31:31.901Z,8.82
2023-05-15T04:33:58.661Z,9.47
2023-05-15T04:36:25.826Z,9.81
2023-05-15T04:38:52.575Z,9.50
2023-05-15T04:41:19.580Z,9.27
2023-05-15T04:43:46.533Z,9.13
2023-05-15T04:46:13.148Z,9.08
2023-05-15T04:48:39.867Z,9.04
2023-05-15T04:51:07.616Z,8.92
2023-05-15T04:53:34.371Z,8.89
2023-05-15T04:56:01.108Z,8.90
2023-05-15T04:58:27.914Z,9.04
2023-05-15T05:00:54.600Z,8.98
2023-05-15T05:03:21.337Z,8.94
2023-05-15T05:05:48.004Z,8.80
2023-05-15T05:08:14.742Z,8.84
2023-05-15T05:10:41.379Z,8.88
2023-05-15T05:13:08.087Z,8.85
2023-05-15T05:15:35.060Z,8.74
2023-05-15T05:18:01.817Z,8.94
2023-05-15T05:20:28.473Z,8.90
2023-05-15T05:22:55.721Z,8.80
2023-05-15T05:25:22.702Z,8.80
2023-05-15T05:27:49.690Z,8.95
2023-05-15T05:30:16.509Z,9.12
2023-05-15T05:32:43.282Z,9.13
2023-05-15T05:35:10.006Z,9.17
2023-05-15T05:37:38.124Z,9.17
2023-05-15T05:40:06.908Z,9.11
2023-05-15T05:42:33.574Z,9.20
2023-05-15T05:45:00.494Z,9.27
2023-05-15T05:47:27.138Z,9.26
2023-05-15T05:49:55.601Z,9.17
2023-05-15T05:52:22.304Z,9.41
2023-05-15T05:54:49.071Z,9.29
2023-05-15T05:57:16.054Z,9.33
2023-05-15T05:59:42.815Z,9.57
2023-05-15T06:02:10.092Z,10.54
2023-05-15T06:04:37.218Z,10.86
2023-05-15T06:07:04.433Z,11.35
2023-05-15T06:09:31.196Z,12.04
2023-05-15T06:11:57.908Z,12.32
2023-05-15T06:14:24.552Z,12.66
2023-05-15T06:16:51.226Z,13.20
2023-05-15T06:19:17.991Z,13.36
2023-05-15T06:21:44.655Z,12.66
2023-05-15T06:24:11.269Z,13.45
2023-05-15T06:26:37.974Z,13.04
2023-05-15T06:29:04.640Z,13.32
2023-05-15T06:31:31.555Z,13.07
2023-05-15T06:33:58.222Z,13.32
2023-05-15T06:36:25.025Z,13.63
2023-05-15T06:38:51.667Z,14.10
2023-05-15T06:41:18.307Z,14.34
2023-05-15T06:43:44.964Z,14.40
2023-05-15T06:46:11.680Z,14.87
2023-05-15T06:48:38.346Z,14.77
2023-05-15T06:51:05.150Z,14.99
2023-05-15T06:53:31.853Z,14.95
2023-05-15T06:55:58.562Z,14.52
2023-05-15T06:58:25.641Z,14.21
2023-05-15T07:00:54.142Z,14.83
2023-05-15T07:03:22.228Z,15.58
2023-05-15T07:05:48.910Z,14.44
2023-05-15T07:08:15.673Z,14.55
2023-05-15T07:10:42.334Z,14.95
2023-05-15T07:13:09.009Z,15.59
2023-05-15T07:15:35.679Z,15.96
2023-05-15T07:18:02.425Z,15.66
2023-05-15T07:20:31.710Z,15.87
2023-05-15T07:22:59.999Z,15.90
2023-05-15T07:25:26.919Z,15.88
2023-05-15T07:27:53.913Z,16.06
2023-05-15T07:30:20.780Z,16.58
2023-05-15T07:32:47.409Z,16.26
2023-05-15T07:35:14.254Z,16.20
2023-05-15T07:37:41.482Z,16.47
2023-05-15T07:40:08.712Z,16.31
2023-05-15T07:42:35.459Z,15.44
2023-05-15T07:45:02.159Z,15.90
2023-05-15T07:47:29.050Z,15.73
2023-05-15T07:49:55.872Z,15.47
2023-05-15T07:52:22.568Z,15.17
2023-05-15T07:54:49.534Z,15.27
2023-05-15T07:57:16.165Z,15.51
2023-05-15T07:59:43.123Z,14.77
2023-05-15T08:02:09.778Z,15.50
2023-05-15T08:04:36.536Z,16.26
2023-05-15T08:07:03.281Z,16.08
2023-05-15T08:09:29.943Z,16.10
2023-05-15T08:11:57.447Z,15.46
2023-05-15T08:14:24.204Z,15.80
2023-05-15T08:16:51.763Z,16.23
2023-05-15T08:19:19.451Z,16.49
2023-05-15T08:21:46.168Z,16.06
2023-05-15T08:24:12.816Z,16.61
2023-05-15T08:26:39.472Z,16.51
2023-05-15T08:29:06.149Z,16.36
2023-05-15T08:31:32.890Z,15.94
2023-05-15T08:33:59.632Z,16.31
2023-05-15T08:36:26.313Z,15.87
2023-05-15T08:38:52.966Z,15.69
2023-05-15T08:41:46.371Z,16.14
2023-05-15T08:44:13.431Z,15.45
2023-05-15T08:46:40.476Z,15.97
2023-05-15T08:49:37.385Z,15.43
2023-05-15T08:52:05.105Z,15.24
2023-05-15T08:54:32.353Z,15.51
2023-05-15T08:57:00.234Z,15.45
2023-05-15T08:59:27.150Z,15.31
2023-05-15T09:01:54.928Z,15.02
2023-05-15T09:04:21.702Z,14.31
2023-05-15T09:06:48.818Z,14.22
2023-05-15T09:09:17.369Z,13.98
2023-05-15T09:11:45.626Z,14.57
2023-05-15T09:14:12.462Z,14.80
2023-05-15T09:16:39.876Z,14.41
2023-05-15T09:19:07.408Z,14.68
2023-05-15T09:21:34.568Z,14.28
2023-05-15T09:24:23.509Z,14.36
2023-05-15T09:27:04.760Z,14.22
2023-05-15T09:29:32.755Z,14.57
2023-05-15T09:32:07.294Z,14.79
2023-05-15T09:34:36.459Z,14.64
2023-05-15T09:37:05.563Z,14.24
2023-05-15T09:39:32.539Z,14.15
2023-05-15T09:42:09.995Z,13.94
2023-05-15T09:44:42.028Z,14.27
2023-05-15T09:47:10.493Z,14.35
2023-05-15T09:49:37.541Z,14.02
2023-05-15T09:52:09.113Z,14.15
2023-05-15T09:54:37.303Z,14.48
2023-05-15T09:57:11.925Z,14.86
2023-05-15T09:59:46.586Z,14.95
2023-05-15T10:02:35.419Z,14.95
2023-05-15T10:05:02.395Z,14.63
2023-05-15T10:07:31.603Z,14.90
2023-05-15T10:09:59.416Z,14.92
2023-05-15T10:12:26.907Z,15.39
2023-05-15T10:14:57.302Z,15.09
2023-05-15T10:17:24.628Z,14.93
2023-05-15T10:19:58.305Z,14.05
2023-05-15T10:22:29.404Z,13.92
2023-05-15T10:25:26.737Z,14.08
2023-05-15T10:27:54.728Z,14.04
2023-05-15T10:30:22.260Z,14.57
2023-05-15T10:32:49.925Z,15.04
2023-05-15T10:35:17.634Z,15.30
2023-05-15T10:37:47.009Z,15.08
2023-05-15T10:40:18.387Z,15.44
2023-05-15T10:42:47.087Z,15.84
2023-05-15T10:45:14.315Z,15.26
2023-05-15T10:47:42.873Z,14.95
2023-05-15T10:50:11.688Z,14.64
2023-05-15T10:52:39.468Z,14.66
2023-05-15T10:55:08.171Z,14.53
2023-05-15T10:57:35.925Z,14.66
2023-05-15T11:00:05.648Z,15.09
2023-05-15T11:02:39.148Z,14.31
2023-05-15T11:05:07.070Z,13.98
2023-05-15T11:07:34.009Z,14.22
2023-05-15T11:10:00.773Z,14.34
2023-05-15T11:12:59.660Z,14.76
2023-05-15T11:15:26.399Z,14.89
2023-05-15T11:18:03.973Z,15.65
2023-05-15T11:20:40.217Z,15.97
2023-05-15T11:23:07.171Z,15.39
2023-05-15T11:25:35.981Z,15.06
2023-05-15T11:28:04.706Z,15.14
2023-05-15T11:30:39.371Z,15.08
2023-05-15T11:33:10.243Z,15.79
2023-05-15T11:35:42.382Z,15.35
2023-05-15T11:38:16.716Z,14.63
2023-05-15T11:41:03.886Z,15.11
2023-05-15T11:43:32.387Z,15.20
2023-05-15T11:46:08.521Z,14.86
2023-05-15T11:48:43.980Z,15.06
2023-05-15T11:51:22.404Z,15.34
2023-05-15T11:53:54.577Z,15.24
2023-05-15T11:56:25.900Z,15.68
2023-05-15T11:58:58.538Z,15.94
2023-05-15T12:01:25.562Z,15.70
2023-05-15T12:03:54.418Z,15.26
2023-05-15T12:06:22.924Z,15.06
2023-05-15T12:08:53.421Z,15.36
2023-05-15T12:11:24.725Z,15.73
2023-05-15T12:13:55.251Z,15.40
2023-05-15T12:16:26.497Z,16.10
2023-05-15T12:18:53.871Z,15.23
2023-05-15T12:21:21.025Z,15.09
2023-05-15T12:26:27.492Z,14.08
2023-05-15T12:28:56.291Z,14.76
2023-05-15T12:31:23.403Z,15.14
2023-05-15T12:33:50.589Z,15.22
2023-05-15T12:36:20.896Z,15.50
2023-05-15T12:38:48.465Z,15.81
2023-05-15T12:41:17.820Z,15.59
2023-05-15T12:43:44.953Z,15.17
2023-05-15T12:46:13.609Z,15.35
2023-05-15T12:48:41.055Z,14.80
2023-05-15T12:51:08.992Z,15.06
2023-05-15T12:53:36.412Z,15.32
2023-05-15T12:56:04.858Z,15.28
2023-05-15T12:58:31.694Z,15.03
2023-05-15T13:00:58.953Z,15.06
2023-05-15T13:03:26.564Z,15.05
2023-05-15T13:05:53.487Z,15.55
2023-05-15T13:08:20.377Z,15.48
2023-05-15T13:10:47.825Z,15.07
2023-05-15T13:13:15.251Z,14.89
2023-05-15T13:15:45.430Z,14.77
2023-05-15T13:18:17.211Z,15.08
2023-05-15T13:20:48.798Z,14.56
2023-05-15T13:23:20.499Z,14.87
2023-05-15T13:25:47.287Z,14.94
2023-05-15T13:28:14.215Z,14.50
2023-05-15T13:30:42.238Z,14.74
2023-05-15T13:33:10.869Z,14.73
2023-05-15T13:35:38.692Z,14.54
2023-05-15T13:38:05.649Z,14.88
2023-05-15T13:40:38.355Z,15.15
2023-05-15T13:43:06.908Z,14.97
2023-05-15T13:45:34.080Z,15.09
2023-05-15T13:48:00.880Z,14.96
2023-05-15T13:50:27.724Z,14.75
2023-05-15T13:52:54.681Z,14.51
2023-05-15T13:55:22.928Z,14.58
2023-05-15T13:57:49.901Z,15.01
2023-05-15T14:00:17.417Z,15.40
2023-05-15T14:02:44.760Z,15.64
2023-05-15T14:05:13.627Z,16.13
2023-05-15T14:07:41.060Z,15.93
2023-05-15T14:10:08.490Z,15.77
2023-05-15T14:12:37.624Z,16.16
2023-05-15T14:15:04.959Z,16.49
2023-05-15T14:17:31.738Z,16.42
2023-05-15T14:19:58.487Z,16.59
2023-05-15T14:22:25.420Z,16.31
2023-05-15T14:24:55.084Z,16.07
2023-05-15T14:27:21.778Z,15.51
2023-05-15T14:29:49.343Z,15.68
2023-05-15T14:32:17.390Z,15.74
2023-05-15T14:34:44.407Z,15.68
2023-05-15T14:37:11.106Z,15.47
2023-05-15T14:39:37.981Z,15.84
2023-05-15T14:42:04.844Z,15.77
2023-05-15T14:44:31.561Z,15.68
2023-05-15T14:47:08.428Z,15.64
2023-05-15T14:49:36.075Z,15.74
2023-05-15T14:52:04.262Z,15.67
2023-05-15T14:54:30.953Z,15.69
2023-05-15T14:56:58.364Z,15.50
2023-05-15T14:59:30.958Z,16.07
2023-05-15T15:01:57.696Z,16.20
2023-05-15T15:04:24.604Z,16.42
2023-05-15T15:06:51.224Z,16.59
2023-05-15T15:09:21.275Z,16.52
2023-05-15T15:11:48.419Z,16.42
2023-05-15T15:14:15.147Z,16.53
2023-05-15T15:16:44.177Z,16.93
2023-05-15T15:19:11.153Z,16.81
2023-05-15T15:21:37.959Z,16.29
2023-05-15T15:24:04.806Z,16.60
2023-05-15T15:26:31.519Z,16.66
2023-05-15T15:29:01.034Z,16.59
2023-05-15T15:31:29.869Z,17.17
2023-05-15T15:33:57.533Z,17.10
2023-05-15T15:36:25.081Z,17.01
2023-05-15T15:38:51.820Z,16.59
2023-05-15T15:41:18.542Z,16.48
2023-05-15T15:43:45.282Z,16.60
2023-05-15T15:46:12.043Z,16.77
2023-05-15T15:48:38.724Z,16.73
2023-05-15T15:51:05.970Z,16.32
2023-05-15T15:53:34.518Z,16.20
2023-05-15T15:56:01.587Z,15.97
2023-05-15T15:58:28.990Z,15.67
2023-05-15T16:00:55.815Z,15.72
2023-05-15T16:03:22.609Z,15.84
2023-05-15T16:05:49.366Z,16.39
2023-05-15T16:08:16.024Z,16.04
2023-05-15T16:10:42.773Z,15.96
2023-05-15T16:13:09.688Z,15.65
2023-05-15T16:15:36.389Z,15.78
2023-05-15T16:18:03.059Z,16.14
2023-05-15T16:20:29.913Z,16.25
2023-05-15T16:22:57.460Z,16.12
2023-05-15T16:25:24.077Z,15.88
2023-05-15T16:27:51.447Z,15.80
2023-05-15T16:30:18.267Z,15.83
2023-05-15T16:32:45.682Z,15.85
2023-05-15T16:35:12.427Z,16.04
2023-05-15T16:37:41.473Z,16.21
2023-05-15T16:40:08.944Z,16.10
2023-05-15T16:42:38.555Z,16.02
2023-05-15T16:45:07.144Z,16.36
2023-05-15T16:47:34.151Z,16.13
2023-05-15T16:50:00.979Z,16.18
2023-05-15T16:52:27.799Z,15.75
2023-05-15T16:54:57.882Z,15.72
2023-05-15T16:57:24.684Z,15.24
2023-05-15T16:59:51.836Z,15.16
2023-05-15T17:02:18.899Z,15.91
2023-05-15T17:04:45.649Z,15.46
2023-05-15T17:07:12.305Z,15.63
2023-05-15T17:09:40.735Z,15.73
2023-05-15T17:12:07.555Z,15.77
2023-05-15T17:14:34.253Z,16.12
2023-05-15T17:17:00.997Z,16.04
2023-05-15T17:19:27.662Z,15.83
2023-05-15T17:21:54.339Z,15.92
2023-05-15T17:24:20.975Z,16.07
2023-05-15T17:26:50.817Z,15.78
2023-05-15T17:29:17.505Z,15.67
2023-05-15T17:31:44.396Z,15.92
2023-05-15T17:34:11.712Z,15.75
2023-05-15T17:36:38.477Z,15.76
2023-05-15T17:39:05.251Z,15.62
2023-05-15T17:41:36.726Z,15.43
2023-05-15T17:44:03.949Z,15.50
2023-05-15T17:46:30.784Z,15.62
2023-05-15T17:49:00.420Z,15.65
2023-05-15T17:51:27.238Z,15.86
2023-05-15T17:53:53.895Z,16.13
2023-05-15T17:56:21.472Z,16.26
2023-05-15T17:58:48.139Z,16.31
2023-05-15T18:01:15.577Z,16.16
2023-05-15T18:03:42.338Z,15.73
2023-05-15T18:06:09.262Z,15.91
2023-05-15T18:08:35.882Z,15.83
2023-05-15T18:11:08.532Z,15.99
2023-05-15T18:13:41.093Z,15.80
2023-05-15T18:16:07.906Z,15.48
2023-05-15T18:18:35.392Z,15.48
2023-05-15T18:21:02.795Z,15.39
2023-05-15T18:23:29.470Z,15.38
2023-05-15T18:25:56.094Z,15.47
2023-05-15T18:28:22.888Z,15.40
2023-05-15T18:30:50.896Z,14.96
2023-05-15T18:33:17.617Z,15.30
2023-05-15T18:35:44.363Z,15.10
2023-05-15T18:38:11.002Z,14.84
2023-05-15T18:40:37.662Z,14.94
2023-05-15T18:43:05.012Z,15.14
2023-05-15T18:45:31.856Z,15.01
2023-05-15T18:47:58.643Z,14.81
2023-05-15T18:50:25.453Z,14.23
2023-05-15T18:52:52.420Z,14.22
2023-05-15T18:55:21.763Z,14.19
2023-05-15T18:57:48.650Z,13.79
2023-05-15T19:00:26.692Z,13.55
2023-05-15T19:03:04.328Z,13.67
2023-05-15T19:05:34.379Z,13.90
2023-05-15T19:08:02.333Z,14.09
2023-05-15T19:10:29.923Z,14.30
2023-05-15T19:12:58.052Z,14.39
2023-05-15T19:15:26.066Z,14.14
2023-05-15T19:17:53.248Z,13.99
2023-05-15T19:20:21.463Z,14.12
2023-05-15T19:22:49.114Z,14.32
2023-05-15T19:25:16.595Z,14.46
2023-05-15T19:27:44.062Z,14.19
2023-05-15T19:30:13.889Z,14.27
2023-05-15T19:32:41.332Z,14.14
2023-05-15T19:35:08.503Z,14.12
2023-05-15T19:37:35.213Z,14.19
2023-05-15T19:40:01.988Z,14.14
2023-05-15T19:42:29.080Z,13.86
2023-05-15T19:44:55.977Z,13.93
2023-05-15T19:47:22.812Z,14.06
2023-05-15T19:49:49.554Z,13.83
2023-05-15T19:52:17.228Z,13.81
2023-05-15T19:54:44.439Z,13.81
2023-05-15T19:57:11.097Z,13.79
2023-05-15T19:59:37.857Z,13.84
2023-05-15T20:02:05.921Z,13.82
2023-05-15T20:04:34.018Z,13.78
2023-05-15T20:07:00.780Z,13.68
2023-05-15T20:09:27.408Z,13.65
2023-05-15T20:11:54.386Z,13.59
2023-05-15T20:14:21.086Z,13.62
2023-05-15T20:16:47.746Z,13.62
2023-05-15T20:19:14.708Z,13.56
2023-05-15T20:21:41.465Z,13.55
2023-05-15T20:24:08.222Z,13.52
2023-05-15T20:26:36.078Z,13.35
2023-05-15T20:29:03.674Z,13.39
2023-05-15T20:31:30.509Z,13.37
2023-05-15T20:33:57.354Z,13.27
2023-05-15T20:36:25.690Z,13.29
2023-05-15T20:38:52.939Z,13.29
2023-05-15T20:41:22.268Z,13.30
2023-05-15T20:43:49.720Z,13.28
2023-05-15T20:46:16.491Z,13.31
2023-05-15T20:48:43.279Z,13.40
2023-05-15T20:51:09.919Z,13.29
2023-05-15T20:53:36.536Z,13.26
2023-05-15T20:56:03.465Z,13.44
2023-05-15T20:58:30.173Z,13.46
2023-05-15T21:01:00.844Z,13.51
2023-05-15T21:03:27.813Z,13.43
2023-05-15T21:05:56.729Z,13.50
2023-05-15T21:08:24.157Z,13.62
2023-05-15T21:10:53.095Z,13.50
2023-05-15T21:13:19.809Z,13.37
2023-05-15T21:15:47.061Z,13.28
2023-05-15T21:18:13.890Z,13.14
2023-05-15T21:20:41.818Z,13.16
2023-05-15T21:23:08.685Z,13.15
2023-05-15T21:25:35.439Z,13.13
2023-05-15T21:28:02.095Z,13.14
2023-05-15T21:30:28.822Z,13.14
2023-05-15T21:32:55.731Z,13.10
2023-05-15T21:35:22.471Z,13.03
2023-05-15T21:37:49.138Z,13.01
2023-05-15T21:40:15.930Z,12.98
2023-05-15T21:42:43.191Z,12.97
2023-05-15T21:45:10.247Z,12.83
2023-05-15T21:47:36.923Z,12.78
2023-05-15T21:50:03.994Z,12.93
2023-05-15T21:52:30.773Z,12.76
2023-05-15T21:54:57.374Z,12.80
2023-05-15T21:57:24.189Z,12.53
2023-05-15T21:59:51.244Z,12.51
2023-05-15T22:02:17.877Z,12.41
2023-05-15T22:04:44.521Z,12.32
2023-05-15T22:07:11.325Z,12.34
2023-05-15T22:09:37.999Z,12.18
2023-05-15T22:12:04.926Z,12.10
2023-05-15T22:14:31.575Z,12.18
2023-05-15T22:16:58.216Z,12.25
2023-05-15T22:19:32.957Z,12.15
2023-05-15T22:22:02.006Z,11.88
2023-05-15T22:24:28.648Z,11.84
2023-05-15T22:26:55.489Z,11.87
2023-05-15T22:29:22.172Z,11.92
2023-05-15T22:31:48.892Z,11.84
2023-05-15T22:34:15.583Z,11.81
2023-05-15T22:36:42.200Z,11.75
2023-05-15T22:39:09.017Z,11.74
2023-05-15T22:41:35.715Z,11.75
2023-05-15T22:44:03.072Z,11.56
2023-05-15T22:46:29.955Z,11.53
2023-05-15T22:48:59.137Z,11.55
2023-05-15T22:51:26.979Z,11.49
2023-05-15T22:53:53.681Z,11.53
2023-05-15T22:56:20.298Z,11.62
2023-05-15T22:58:48.033Z,11.57
2023-05-15T23:01:14.738Z,11.49
2023-05-15T23:03:41.508Z,11.56
2023-05-15T23:06:08.269Z,11.50
2023-05-15T23:08:34.873Z,11.50
2023-05-15T23:11:01.583Z,11.50
2023-05-15T23:13:28.303Z,11.51
2023-05-15T23:15:55.014Z,11.32
2023-05-15T23:18:21.822Z,11.17
2023-05-15T23:20:48.446Z,11.11
2023-05-15T23:23:15.377Z,11.22
2023-05-15T23:25:42.060Z,11.23
2023-05-15T23:28:08.664Z,11.22
2023-05-15T23:30:35.427Z,11.00
2023-05-15T23:33:02.083Z,10.96
2023-05-15T23:35:28.778Z,10.94
2023-05-15T23:37:55.414Z,11.02
2023-05-15T23:40:22.086Z,11.10
2023-05-15T23:42:48.846Z,11.33
2023-05-15T23:45:15.566Z,11.26
2023-05-15T23:47:42.470Z,11.60
2023-05-15T23:50:09.286Z,11.72
2023-05-15T23:52:36.071Z,11.69
2023-05-15T23:55:02.769Z,11.68
2023-05-15T23:57:29.409Z,11.58
2023-05-15T23:59:56.145Z,11.55
